Terminal Aerodrome Forecast
Issued by NWS

Home | Current Version | Previous Version | Text Only | Print | Product List | Glossary Off
Versions: 1 2 3 4 5 6 7 8 9 10 11 12 13 14 15 16 17 18

000
FTUS43 KIWX 190951 AAA
TAFSBN
TAF AMD
KSBN 190951Z 1910/2006 08004KT 5SM SHRA BR VCTS BKN005CB OVC035
      TEMPO 1910/1911 1 1/2SM +TSRA OVC005CB
     FM191100 09004KT 2SM -SHRA BR OVC008
     FM191300 10004KT 5SM BR VCSH OVC015
     FM192000 14006KT P6SM BKN035
     FM200300 VRB03KT P6SM SCT035=

USA.gov is the U.S. government's official web portal to all federal, state and local government web resources and services.